sensor_id;sensor_type;location;lat;lon;timestamp;P1;durP1;ratioP1;P2;durP2;ratioP2
19883;SDS011;10104;50.732;10.174;2023-07-29T00:00:09;7.78;;;4.53;;
19883;SDS011;10104;50.732;10.174;2023-07-29T00:02:34;4.70;;;4.20;;
19883;SDS011;10104;50.732;10.174;2023-07-29T00:04:56;6.75;;;4.90;;
19883;SDS011;10104;50.732;10.174;2023-07-29T00:07:17;4.88;;;4.38;;
19883;SDS011;10104;50.732;10.174;2023-07-29T00:09:39;5.68;;;4.07;;
19883;SDS011;10104;50.732;10.174;2023-07-29T00:12:00;5.72;;;3.97;;
19883;SDS011;10104;50.732;10.174;2023-07-29T00:14:22;6.65;;;4.30;;
19883;SDS011;10104;50.732;10.174;2023-07-29T00:16:43;8.55;;;4.15;;
19883;SDS011;10104;50.732;10.174;2023-07-29T00:19:06;6.57;;;4.00;;
19883;SDS011;10104;50.732;10.174;2023-07-29T00:21:27;5.55;;;3.38;;
19883;SDS011;10104;50.732;10.174;2023-07-29T00:23:49;5.60;;;3.50;;
19883;SDS011;10104;50.732;10.174;2023-07-29T00:26:11;5.55;;;3.65;;
19883;SDS011;10104;50.732;10.174;2023-07-29T00:28:32;5.93;;;3.40;;
19883;SDS011;10104;50.732;10.174;2023-07-29T00:30:54;5.88;;;3.30;;
19883;SDS011;10104;50.732;10.174;2023-07-29T00:33:15;6.60;;;3.53;;
19883;SDS011;10104;50.732;10.174;2023-07-29T00:35:37;5.65;;;3.60;;
19883;SDS011;10104;50.732;10.174;2023-07-29T00:37:58;6.70;;;3.63;;
19883;SDS011;10104;50.732;10.174;2023-07-29T00:40:21;3.95;;;3.65;;
19883;SDS011;10104;50.732;10.174;2023-07-29T00:42:43;4.18;;;3.72;;
19883;SDS011;10104;50.732;10.174;2023-07-29T00:45:05;3.92;;;3.63;;
19883;SDS011;10104;50.732;10.174;2023-07-29T00:47:28;4.35;;;3.95;;
19883;SDS011;10104;50.732;10.174;2023-07-29T00:49:50;3.88;;;3.53;;
19883;SDS011;10104;50.732;10.174;2023-07-29T00:52:12;4.93;;;4.05;;
19883;SDS011;10104;50.732;10.174;2023-07-29T00:54:34;5.10;;;4.05;;
19883;SDS011;10104;50.732;10.174;2023-07-29T00:56:55;4.35;;;3.95;;
19883;SDS011;10104;50.732;10.174;2023-07-29T00:59:17;4.78;;;4.38;;
19883;SDS011;10104;50.732;10.174;2023-07-29T01:01:38;4.70;;;4.25;;
19883;SDS011;10104;50.732;10.174;2023-07-29T01:04:00;4.93;;;4.20;;
19883;SDS011;10104;50.732;10.174;2023-07-29T01:06:41;5.22;;;4.20;;
19883;SDS011;10104;50.732;10.174;2023-07-29T01:09:05;4.40;;;3.58;;
19883;SDS011;10104;50.732;10.174;2023-07-29T01:17:03;8.18;;;3.67;;
19883;SDS011;10104;50.732;10.174;2023-07-29T01:19:42;5.80;;;3.83;;
19883;SDS011;10104;50.732;10.174;2023-07-29T01:22:16;8.20;;;3.63;;
19883;SDS011;10104;50.732;10.174;2023-07-29T01:24:38;5.05;;;3.00;;
19883;SDS011;10104;50.732;10.174;2023-07-29T01:27:00;8.98;;;3.35;;
19883;SDS011;10104;50.732;10.174;2023-07-29T01:29:22;8.60;;;3.83;;
19883;SDS011;10104;50.732;10.174;2023-07-29T01:31:44;5.03;;;3.88;;
19883;SDS011;10104;50.732;10.174;2023-07-29T01:34:17;9.02;;;3.92;;
19883;SDS011;10104;50.732;10.174;2023-07-29T01:36:53;7.30;;;3.40;;
19883;SDS011;10104;50.732;10.174;2023-07-29T01:39:22;5.55;;;3.40;;
19883;SDS011;10104;50.732;10.174;2023-07-29T01:41:47;4.47;;;3.42;;
19883;SDS011;10104;50.732;10.174;2023-07-29T01:44:10;5.40;;;3.53;;
19883;SDS011;10104;50.732;10.174;2023-07-29T01:46:33;3.50;;;3.15;;
19883;SDS011;10104;50.732;10.174;2023-07-29T01:48:56;3.60;;;2.92;;
19883;SDS011;10104;50.732;10.174;2023-07-29T01:51:17;6.97;;;3.25;;
19883;SDS011;10104;50.732;10.174;2023-07-29T01:53:39;6.93;;;3.35;;
19883;SDS011;10104;50.732;10.174;2023-07-29T01:56:01;5.47;;;3.20;;
19883;SDS011;10104;50.732;10.174;2023-07-29T01:58:23;6.30;;;3.15;;
19883;SDS011;10104;50.732;10.174;2023-07-29T02:00:45;5.97;;;3.40;;
19883;SDS011;10104;50.732;10.174;2023-07-29T02:03:07;6.47;;;2.90;;
19883;SDS011;10104;50.732;10.174;2023-07-29T02:05:28;4.15;;;3.05;;
19883;SDS011;10104;50.732;10.174;2023-07-29T02:07:50;3.33;;;3.03;;
19883;SDS011;10104;50.732;10.174;2023-07-29T02:10:12;6.53;;;2.80;;
19883;SDS011;10104;50.732;10.174;2023-07-29T02:12:34;6.47;;;2.80;;
19883;SDS011;10104;50.732;10.174;2023-07-29T02:14:55;4.22;;;3.03;;
19883;SDS011;10104;50.732;10.174;2023-07-29T02:17:17;6.70;;;3.00;;
19883;SDS011;10104;50.732;10.174;2023-07-29T02:19:39;5.70;;;2.72;;
19883;SDS011;10104;50.732;10.174;2023-07-29T02:22:00;4.18;;;2.80;;
19883;SDS011;10104;50.732;10.174;2023-07-29T02:24:21;2.90;;;2.33;;
19883;SDS011;10104;50.732;10.174;2023-07-29T02:26:43;8.25;;;3.22;;
19883;SDS011;10104;50.732;10.174;2023-07-29T02:29:04;3.75;;;2.75;;
19883;SDS011;10104;50.732;10.174;2023-07-29T02:31:26;6.20;;;2.80;;
19883;SDS011;10104;50.732;10.174;2023-07-29T02:33:48;3.92;;;2.67;;
19883;SDS011;10104;50.732;10.174;2023-07-29T02:36:11;2.97;;;2.42;;
19883;SDS011;10104;50.732;10.174;2023-07-29T02:38:34;4.05;;;2.60;;
19883;SDS011;10104;50.732;10.174;2023-07-29T02:40:56;2.80;;;2.60;;
19883;SDS011;10104;50.732;10.174;2023-07-29T02:43:18;7.53;;;2.72;;
19883;SDS011;10104;50.732;10.174;2023-07-29T02:45:39;6.15;;;2.72;;
19883;SDS011;10104;50.732;10.174;2023-07-29T02:48:01;3.03;;;2.70;;
19883;SDS011;10104;50.732;10.174;2023-07-29T02:50:22;4.75;;;2.88;;
19883;SDS011;10104;50.732;10.174;2023-07-29T02:52:44;5.53;;;2.92;;
19883;SDS011;10104;50.732;10.174;2023-07-29T02:55:05;3.67;;;2.88;;
19883;SDS011;10104;50.732;10.174;2023-07-29T02:57:27;8.55;;;3.05;;
19883;SDS011;10104;50.732;10.174;2023-07-29T02:59:49;4.13;;;3.10;;
19883;SDS011;10104;50.732;10.174;2023-07-29T03:02:11;5.47;;;2.90;;
19883;SDS011;10104;50.732;10.174;2023-07-29T03:04:32;5.63;;;3.05;;
19883;SDS011;10104;50.732;10.174;2023-07-29T03:06:54;6.35;;;2.80;;
19883;SDS011;10104;50.732;10.174;2023-07-29T03:09:16;5.47;;;2.75;;
19883;SDS011;10104;50.732;10.174;2023-07-29T03:11:37;4.60;;;2.55;;
19883;SDS011;10104;50.732;10.174;2023-07-29T03:13:59;4.95;;;2.53;;
19883;SDS011;10104;50.732;10.174;2023-07-29T03:16:22;3.95;;;2.85;;
19883;SDS011;10104;50.732;10.174;2023-07-29T03:18:44;2.95;;;2.65;;
19883;SDS011;10104;50.732;10.174;2023-07-29T03:21:06;5.75;;;2.78;;
19883;SDS011;10104;50.732;10.174;2023-07-29T03:23:28;6.13;;;2.67;;
19883;SDS011;10104;50.732;10.174;2023-07-29T03:25:50;4.97;;;2.88;;
19883;SDS011;10104;50.732;10.174;2023-07-29T03:28:12;4.90;;;2.83;;
19883;SDS011;10104;50.732;10.174;2023-07-29T03:30:34;4.88;;;2.55;;
19883;SDS011;10104;50.732;10.174;2023-07-29T03:32:55;2.70;;;2.50;;
19883;SDS011;10104;50.732;10.174;2023-07-29T03:35:17;3.42;;;2.92;;
19883;SDS011;10104;50.732;10.174;2023-07-29T03:37:39;4.80;;;2.85;;
19883;SDS011;10104;50.732;10.174;2023-07-29T03:40:00;5.93;;;2.53;;
19883;SDS011;10104;50.732;10.174;2023-07-29T03:42:25;5.22;;;2.63;;
19883;SDS011;10104;50.732;10.174;2023-07-29T03:44:47;3.63;;;3.17;;
19883;SDS011;10104;50.732;10.174;2023-07-29T03:47:08;4.20;;;2.70;;
19883;SDS011;10104;50.732;10.174;2023-07-29T03:49:30;3.35;;;2.83;;
19883;SDS011;10104;50.732;10.174;2023-07-29T03:51:51;3.10;;;2.80;;
19883;SDS011;10104;50.732;10.174;2023-07-29T03:54:13;2.72;;;2.53;;
19883;SDS011;10104;50.732;10.174;2023-07-29T03:56:34;6.80;;;2.80;;
19883;SDS011;10104;50.732;10.174;2023-07-29T03:59:03;2.80;;;2.40;;
19883;SDS011;10104;50.732;10.174;2023-07-29T04:01:26;5.30;;;2.80;;
19883;SDS011;10104;50.732;10.174;2023-07-29T04:03:47;5.13;;;2.83;;
19883;SDS011;10104;50.732;10.174;2023-07-29T04:06:09;4.20;;;2.70;;
19883;SDS011;10104;50.732;10.174;2023-07-29T04:08:31;2.80;;;2.60;;
19883;SDS011;10104;50.732;10.174;2023-07-29T04:10:52;5.28;;;2.72;;
19883;SDS011;10104;50.732;10.174;2023-07-29T04:13:14;3.03;;;2.58;;
19883;SDS011;10104;50.732;10.174;2023-07-29T04:15:35;3.15;;;2.40;;
19883;SDS011;10104;50.732;10.174;2023-07-29T04:17:57;4.97;;;2.60;;
19883;SDS011;10104;50.732;10.174;2023-07-29T04:20:18;6.40;;;2.70;;
19883;SDS011;10104;50.732;10.174;2023-07-29T04:22:40;6.32;;;2.80;;
19883;SDS011;10104;50.732;10.174;2023-07-29T04:25:02;7.57;;;2.67;;
19883;SDS011;10104;50.732;10.174;2023-07-29T04:27:25;4.72;;;2.67;;
19883;SDS011;10104;50.732;10.174;2023-07-29T04:29:47;4.65;;;2.72;;
19883;SDS011;10104;50.732;10.174;2023-07-29T04:32:08;5.35;;;2.75;;
19883;SDS011;10104;50.732;10.174;2023-07-29T04:34:30;4.25;;;2.85;;
19883;SDS011;10104;50.732;10.174;2023-07-29T04:36:52;3.40;;;2.70;;
19883;SDS011;10104;50.732;10.174;2023-07-29T04:39:14;3.25;;;2.70;;
19883;SDS011;10104;50.732;10.174;2023-07-29T04:41:36;4.70;;;3.05;;
19883;SDS011;10104;50.732;10.174;2023-07-29T04:43:57;5.05;;;2.65;;
19883;SDS011;10104;50.732;10.174;2023-07-29T04:46:19;3.63;;;2.63;;
19883;SDS011;10104;50.732;10.174;2023-07-29T04:48:41;3.25;;;2.50;;
19883;SDS011;10104;50.732;10.174;2023-07-29T04:51:02;3.78;;;2.60;;
19883;SDS011;10104;50.732;10.174;2023-07-29T04:53:24;6.38;;;2.83;;
19883;SDS011;10104;50.732;10.174;2023-07-29T04:55:45;5.72;;;2.50;;
19883;SDS011;10104;50.732;10.174;2023-07-29T04:58:07;4.85;;;2.80;;
19883;SDS011;10104;50.732;10.174;2023-07-29T05:00:29;3.03;;;2.70;;
19883;SDS011;10104;50.732;10.174;2023-07-29T05:02:51;6.22;;;2.97;;
19883;SDS011;10104;50.732;10.174;2023-07-29T05:05:13;9.20;;;3.13;;
19883;SDS011;10104;50.732;10.174;2023-07-29T05:07:34;3.60;;;2.85;;
19883;SDS011;10104;50.732;10.174;2023-07-29T05:09:56;5.25;;;3.00;;
19883;SDS011;10104;50.732;10.174;2023-07-29T05:12:17;2.70;;;2.45;;
19883;SDS011;10104;50.732;10.174;2023-07-29T05:14:39;4.38;;;2.83;;
19883;SDS011;10104;50.732;10.174;2023-07-29T05:17:00;5.00;;;2.47;;
19883;SDS011;10104;50.732;10.174;2023-07-29T05:19:22;4.55;;;2.55;;
19883;SDS011;10104;50.732;10.174;2023-07-29T05:21:43;6.13;;;2.80;;
19883;SDS011;10104;50.732;10.174;2023-07-29T05:24:05;3.10;;;2.10;;
19883;SDS011;10104;50.732;10.174;2023-07-29T05:26:26;4.30;;;2.05;;
19883;SDS011;10104;50.732;10.174;2023-07-29T05:28:48;2.92;;;2.10;;
19883;SDS011;10104;50.732;10.174;2023-07-29T05:31:09;5.65;;;1.90;;
19883;SDS011;10104;50.732;10.174;2023-07-29T05:33:31;4.43;;;2.10;;
19883;SDS011;10104;50.732;10.174;2023-07-29T05:35:53;4.20;;;2.00;;
19883;SDS011;10104;50.732;10.174;2023-07-29T05:38:14;2.63;;;2.00;;
19883;SDS011;10104;50.732;10.174;2023-07-29T05:40:36;3.20;;;2.50;;
19883;SDS011;10104;50.732;10.174;2023-07-29T05:42:57;4.90;;;2.55;;
19883;SDS011;10104;50.732;10.174;2023-07-29T05:45:19;5.03;;;3.00;;
19883;SDS011;10104;50.732;10.174;2023-07-29T05:47:40;3.55;;;2.55;;
19883;SDS011;10104;50.732;10.174;2023-07-29T05:50:02;6.18;;;2.40;;
19883;SDS011;10104;50.732;10.174;2023-07-29T05:52:25;2.05;;;1.75;;
19883;SDS011;10104;50.732;10.174;2023-07-29T05:54:47;3.05;;;2.25;;
19883;SDS011;10104;50.732;10.174;2023-07-29T05:57:09;4.80;;;1.98;;
19883;SDS011;10104;50.732;10.174;2023-07-29T05:59:31;2.63;;;2.08;;
19883;SDS011;10104;50.732;10.174;2023-07-29T06:01:52;3.60;;;3.00;;
19883;SDS011;10104;50.732;10.174;2023-07-29T06:04:14;2.28;;;2.05;;
19883;SDS011;10104;50.732;10.174;2023-07-29T06:06:35;2.70;;;2.50;;
19883;SDS011;10104;50.732;10.174;2023-07-29T06:08:57;23.48;;;2.28;;
19883;SDS011;10104;50.732;10.174;2023-07-29T06:11:19;4.35;;;2.00;;
19883;SDS011;10104;50.732;10.174;2023-07-29T06:13:41;2.30;;;1.73;;
19883;SDS011;10104;50.732;10.174;2023-07-29T06:16:02;1.98;;;1.80;;
19883;SDS011;10104;50.732;10.174;2023-07-29T06:18:24;2.05;;;1.77;;
19883;SDS011;10104;50.732;10.174;2023-07-29T06:20:46;2.13;;;1.92;;
19883;SDS011;10104;50.732;10.174;2023-07-29T06:23:07;2.15;;;2.05;;
19883;SDS011;10104;50.732;10.174;2023-07-29T06:25:29;1.85;;;1.75;;
19883;SDS011;10104;50.732;10.174;2023-07-29T06:27:50;2.00;;;1.55;;
19883;SDS011;10104;50.732;10.174;2023-07-29T06:30:12;3.65;;;1.60;;
19883;SDS011;10104;50.732;10.174;2023-07-29T06:32:34;4.18;;;2.30;;
19883;SDS011;10104;50.732;10.174;2023-07-29T06:34:56;3.38;;;1.77;;
19883;SDS011;10104;50.732;10.174;2023-07-29T06:37:17;5.45;;;3.60;;
19883;SDS011;10104;50.732;10.174;2023-07-29T06:39:39;1.65;;;1.55;;
19883;SDS011;10104;50.732;10.174;2023-07-29T06:42:00;2.60;;;1.80;;
19883;SDS011;10104;50.732;10.174;2023-07-29T06:44:23;4.57;;;1.48;;
19883;SDS011;10104;50.732;10.174;2023-07-29T06:46:44;3.05;;;1.58;;
19883;SDS011;10104;50.732;10.174;2023-07-29T06:49:06;1.73;;;1.63;;
19883;SDS011;10104;50.732;10.174;2023-07-29T06:51:28;3.47;;;1.70;;
19883;SDS011;10104;50.732;10.174;2023-07-29T06:53:53;1.52;;;1.42;;
19883;SDS011;10104;50.732;10.174;2023-07-29T06:56:15;2.67;;;1.70;;
19883;SDS011;10104;50.732;10.174;2023-07-29T06:58:36;3.63;;;1.92;;
19883;SDS011;10104;50.732;10.174;2023-07-29T07:00:58;2.22;;;1.80;;
19883;SDS011;10104;50.732;10.174;2023-07-29T07:03:19;2.30;;;1.88;;
19883;SDS011;10104;50.732;10.174;2023-07-29T07:05:41;4.70;;;2.13;;
19883;SDS011;10104;50.732;10.174;2023-07-29T07:08:03;2.20;;;1.90;;
19883;SDS011;10104;50.732;10.174;2023-07-29T07:10:24;2.22;;;1.90;;
19883;SDS011;10104;50.732;10.174;2023-07-29T07:12:46;1.90;;;1.80;;
19883;SDS011;10104;50.732;10.174;2023-07-29T07:15:07;3.05;;;1.70;;
19883;SDS011;10104;50.732;10.174;2023-07-29T07:17:29;2.85;;;1.90;;
19883;SDS011;10104;50.732;10.174;2023-07-29T07:19:51;2.03;;;1.83;;
19883;SDS011;10104;50.732;10.174;2023-07-29T07:22:12;1.90;;;1.80;;
19883;SDS011;10104;50.732;10.174;2023-07-29T07:24:34;2.30;;;2.00;;
19883;SDS011;10104;50.732;10.174;2023-07-29T07:26:55;1.98;;;1.88;;
19883;SDS011;10104;50.732;10.174;2023-07-29T07:29:17;2.47;;;2.20;;
19883;SDS011;10104;50.732;10.174;2023-07-29T07:31:39;2.20;;;2.00;;
19883;SDS011;10104;50.732;10.174;2023-07-29T07:34:00;2.20;;;2.00;;
19883;SDS011;10104;50.732;10.174;2023-07-29T07:36:24;5.22;;;1.98;;
19883;SDS011;10104;50.732;10.174;2023-07-29T07:38:45;4.10;;;2.08;;
19883;SDS011;10104;50.732;10.174;2023-07-29T07:41:07;2.60;;;1.60;;
19883;SDS011;10104;50.732;10.174;2023-07-29T07:43:28;2.80;;;1.73;;
19883;SDS011;10104;50.732;10.174;2023-07-29T07:45:50;3.47;;;1.90;;
19883;SDS011;10104;50.732;10.174;2023-07-29T07:48:12;2.25;;;1.92;;
19883;SDS011;10104;50.732;10.174;2023-07-29T07:50:34;2.00;;;1.80;;
19883;SDS011;10104;50.732;10.174;2023-07-29T07:52:56;4.40;;;2.05;;
19883;SDS011;10104;50.732;10.174;2023-07-29T07:55:17;4.15;;;2.08;;
19883;SDS011;10104;50.732;10.174;2023-07-29T07:57:39;3.42;;;1.80;;
19883;SDS011;10104;50.732;10.174;2023-07-29T08:00:00;3.10;;;1.90;;
19883;SDS011;10104;50.732;10.174;2023-07-29T08:02:22;4.07;;;1.73;;
19883;SDS011;10104;50.732;10.174;2023-07-29T08:04:43;4.32;;;2.15;;
19883;SDS011;10104;50.732;10.174;2023-07-29T08:07:05;5.22;;;1.80;;
19883;SDS011;10104;50.732;10.174;2023-07-29T08:09:27;3.88;;;1.98;;
19883;SDS011;10104;50.732;10.174;2023-07-29T08:11:48;3.97;;;1.70;;
19883;SDS011;10104;50.732;10.174;2023-07-29T08:14:10;3.15;;;1.98;;
19883;SDS011;10104;50.732;10.174;2023-07-29T08:16:31;4.90;;;1.90;;
19883;SDS011;10104;50.732;10.174;2023-07-29T08:18:53;3.13;;;1.60;;
19883;SDS011;10104;50.732;10.174;2023-07-29T08:21:14;3.13;;;1.50;;
19883;SDS011;10104;50.732;10.174;2023-07-29T08:23:36;5.65;;;2.20;;
19883;SDS011;10104;50.732;10.174;2023-07-29T08:26:00;2.03;;;1.90;;
19883;SDS011;10104;50.732;10.174;2023-07-29T08:28:23;3.30;;;1.77;;
19883;SDS011;10104;50.732;10.174;2023-07-29T08:30:45;2.80;;;1.80;;
19883;SDS011;10104;50.732;10.174;2023-07-29T08:33:06;4.65;;;1.85;;
19883;SDS011;10104;50.732;10.174;2023-07-29T08:35:28;2.47;;;1.92;;
19883;SDS011;10104;50.732;10.174;2023-07-29T08:37:49;3.53;;;1.83;;
19883;SDS011;10104;50.732;10.174;2023-07-29T08:40:11;4.20;;;1.73;;
19883;SDS011;10104;50.732;10.174;2023-07-29T08:42:34;3.15;;;2.00;;
19883;SDS011;10104;50.732;10.174;2023-07-29T08:45:06;2.85;;;2.08;;
19883;SDS011;10104;50.732;10.174;2023-07-29T08:47:29;3.45;;;2.13;;
19883;SDS011;10104;50.732;10.174;2023-07-29T08:49:51;4.07;;;2.00;;
19883;SDS011;10104;50.732;10.174;2023-07-29T08:52:14;3.17;;;2.38;;
19883;SDS011;10104;50.732;10.174;2023-07-29T08:54:36;4.97;;;2.30;;
19883;SDS011;10104;50.732;10.174;2023-07-29T08:56:58;2.63;;;2.30;;
19883;SDS011;10104;50.732;10.174;2023-07-29T08:59:20;5.90;;;2.15;;
19883;SDS011;10104;50.732;10.174;2023-07-29T09:01:42;4.22;;;2.15;;
19883;SDS011;10104;50.732;10.174;2023-07-29T09:04:04;6.88;;;2.17;;
19883;SDS011;10104;50.732;10.174;2023-07-29T09:06:26;8.02;;;2.40;;
19883;SDS011;10104;50.732;10.174;2023-07-29T09:08:49;3.88;;;2.33;;
19883;SDS011;10104;50.732;10.174;2023-07-29T09:11:13;4.95;;;2.13;;
19883;SDS011;10104;50.732;10.174;2023-07-29T09:13:35;5.72;;;2.22;;
19883;SDS011;10104;50.732;10.174;2023-07-29T09:15:57;2.10;;;1.90;;
19883;SDS011;10104;50.732;10.174;2023-07-29T09:18:19;4.50;;;1.80;;
19883;SDS011;10104;50.732;10.174;2023-07-29T09:20:41;3.10;;;1.88;;
19883;SDS011;10104;50.732;10.174;2023-07-29T09:23:03;2.38;;;1.88;;
19883;SDS011;10104;50.732;10.174;2023-07-29T09:25:29;2.25;;;1.98;;
19883;SDS011;10104;50.732;10.174;2023-07-29T09:27:51;4.05;;;2.05;;
19883;SDS011;10104;50.732;10.174;2023-07-29T09:30:15;2.33;;;1.80;;
19883;SDS011;10104;50.732;10.174;2023-07-29T09:32:38;3.80;;;2.00;;
19883;SDS011;10104;50.732;10.174;2023-07-29T09:35:00;3.08;;;1.85;;
19883;SDS011;10104;50.732;10.174;2023-07-29T09:37:22;3.58;;;1.80;;
19883;SDS011;10104;50.732;10.174;2023-07-29T09:39:45;3.47;;;1.77;;
19883;SDS011;10104;50.732;10.174;2023-07-29T09:42:07;3.70;;;1.90;;
19883;SDS011;10104;50.732;10.174;2023-07-29T09:44:35;2.20;;;2.00;;
19883;SDS011;10104;50.732;10.174;2023-07-29T09:46:57;2.30;;;1.55;;
19883;SDS011;10104;50.732;10.174;2023-07-29T09:49:19;2.42;;;1.80;;
19883;SDS011;10104;50.732;10.174;2023-07-29T09:51:43;3.42;;;1.60;;
19883;SDS011;10104;50.732;10.174;2023-07-29T09:54:05;2.20;;;1.60;;
19883;SDS011;10104;50.732;10.174;2023-07-29T09:56:26;2.10;;;1.75;;
19883;SDS011;10104;50.732;10.174;2023-07-29T09:58:48;1.70;;;1.60;;
19883;SDS011;10104;50.732;10.174;2023-07-29T10:01:10;2.90;;;1.67;;
19883;SDS011;10104;50.732;10.174;2023-07-29T10:03:32;1.77;;;1.60;;
19883;SDS011;10104;50.732;10.174;2023-07-29T10:05:55;4.53;;;2.00;;
19883;SDS011;10104;50.732;10.174;2023-07-29T10:08:17;4.03;;;1.75;;
19883;SDS011;10104;50.732;10.174;2023-07-29T10:10:42;3.28;;;1.85;;
19883;SDS011;10104;50.732;10.174;2023-07-29T10:13:04;5.85;;;1.83;;
19883;SDS011;10104;50.732;10.174;2023-07-29T10:15:27;5.25;;;1.67;;
19883;SDS011;10104;50.732;10.174;2023-07-29T10:17:50;2.05;;;1.50;;
19883;SDS011;10104;50.732;10.174;2023-07-29T10:20:13;1.63;;;1.30;;
19883;SDS011;10104;50.732;10.174;2023-07-29T10:22:38;4.40;;;1.58;;
19883;SDS011;10104;50.732;10.174;2023-07-29T10:25:03;1.70;;;1.33;;
19883;SDS011;10104;50.732;10.174;2023-07-29T10:27:29;3.05;;;1.50;;
19883;SDS011;10104;50.732;10.174;2023-07-29T10:29:53;2.72;;;1.33;;
19883;SDS011;10104;50.732;10.174;2023-07-29T10:32:16;1.50;;;1.30;;
19883;SDS011;10104;50.732;10.174;2023-07-29T10:34:38;3.90;;;1.20;;
19883;SDS011;10104;50.732;10.174;2023-07-29T10:37:01;4.40;;;1.40;;
19883;SDS011;10104;50.732;10.174;2023-07-29T10:39:25;4.10;;;1.40;;
19883;SDS011;10104;50.732;10.174;2023-07-29T10:42:00;2.17;;;1.70;;
19883;SDS011;10104;50.732;10.174;2023-07-29T10:49:42;2.92;;;1.38;;
19883;SDS011;10104;50.732;10.174;2023-07-29T10:52:04;2.05;;;1.30;;
19883;SDS011;10104;50.732;10.174;2023-07-29T10:54:26;3.10;;;1.50;;
19883;SDS011;10104;50.732;10.174;2023-07-29T10:56:48;3.13;;;1.58;;
19883;SDS011;10104;50.732;10.174;2023-07-29T11:01:39;3.25;;;1.60;;
19883;SDS011;10104;50.732;10.174;2023-07-29T11:04:22;3.08;;;1.65;;
19883;SDS011;10104;50.732;10.174;2023-07-29T11:09:39;2.08;;;1.42;;
19883;SDS011;10104;50.732;10.174;2023-07-29T11:17:52;1.95;;;1.40;;
19883;SDS011;10104;50.732;10.174;2023-07-29T11:20:14;3.22;;;1.75;;
19883;SDS011;10104;50.732;10.174;2023-07-29T11:22:37;2.45;;;1.65;;
19883;SDS011;10104;50.732;10.174;2023-07-29T11:24:59;6.43;;;1.80;;
19883;SDS011;10104;50.732;10.174;2023-07-29T11:27:21;4.35;;;1.70;;
19883;SDS011;10104;50.732;10.174;2023-07-29T11:29:43;2.40;;;1.67;;
19883;SDS011;10104;50.732;10.174;2023-07-29T11:32:05;2.05;;;1.60;;
19883;SDS011;10104;50.732;10.174;2023-07-29T11:34:33;3.38;;;1.67;;
19883;SDS011;10104;50.732;10.174;2023-07-29T11:36:54;1.70;;;1.60;;
19883;SDS011;10104;50.732;10.174;2023-07-29T11:39:16;1.92;;;1.50;;
19883;SDS011;10104;50.732;10.174;2023-07-29T11:41:37;3.70;;;1.92;;
19883;SDS011;10104;50.732;10.174;2023-07-29T11:43:59;3.20;;;1.70;;
19883;SDS011;10104;50.732;10.174;2023-07-29T11:46:21;2.63;;;1.80;;
19883;SDS011;10104;50.732;10.174;2023-07-29T11:48:44;2.83;;;1.80;;
19883;SDS011;10104;50.732;10.174;2023-07-29T11:51:05;2.40;;;1.75;;
19883;SDS011;10104;50.732;10.174;2023-07-29T11:53:28;2.20;;;1.67;;
19883;SDS011;10104;50.732;10.174;2023-07-29T11:55:51;2.25;;;1.92;;
19883;SDS011;10104;50.732;10.174;2023-07-29T11:58:14;1.75;;;1.60;;
19883;SDS011;10104;50.732;10.174;2023-07-29T12:00:37;3.65;;;1.80;;
19883;SDS011;10104;50.732;10.174;2023-07-29T12:02:59;1.92;;;1.55;;
19883;SDS011;10104;50.732;10.174;2023-07-29T12:05:21;3.00;;;1.75;;
19883;SDS011;10104;50.732;10.174;2023-07-29T12:07:44;2.22;;;1.65;;
19883;SDS011;10104;50.732;10.174;2023-07-29T12:10:06;2.38;;;1.77;;
19883;SDS011;10104;50.732;10.174;2023-07-29T12:12:28;1.73;;;1.63;;
19883;SDS011;10104;50.732;10.174;2023-07-29T12:14:50;2.88;;;1.92;;
19883;SDS011;10104;50.732;10.174;2023-07-29T12:17:11;2.65;;;2.25;;
19883;SDS011;10104;50.732;10.174;2023-07-29T12:21:56;3.13;;;2.00;;
19883;SDS011;10104;50.732;10.174;2023-07-29T12:24:17;2.22;;;1.90;;
19883;SDS011;10104;50.732;10.174;2023-07-29T12:26:40;1.70;;;1.60;;
19883;SDS011;10104;50.732;10.174;2023-07-29T12:29:14;2.03;;;1.80;;
19883;SDS011;10104;50.732;10.174;2023-07-29T12:31:37;47.50;;;6.85;;
19883;SDS011;10104;50.732;10.174;2023-07-29T12:33:59;5.22;;;2.10;;
19883;SDS011;10104;50.732;10.174;2023-07-29T12:36:21;19.35;;;3.90;;
19883;SDS011;10104;50.732;10.174;2023-07-29T12:38:42;2.15;;;1.73;;
19883;SDS011;10104;50.732;10.174;2023-07-29T12:41:05;33.72;;;6.32;;
19883;SDS011;10104;50.732;10.174;2023-07-29T12:43:27;55.05;;;7.38;;
19883;SDS011;10104;50.732;10.174;2023-07-29T12:45:50;1.90;;;1.70;;
19883;SDS011;10104;50.732;10.174;2023-07-29T12:48:11;2.20;;;1.90;;
19883;SDS011;10104;50.732;10.174;2023-07-29T12:50:33;4.03;;;2.08;;
19883;SDS011;10104;50.732;10.174;2023-07-29T12:52:55;4.20;;;2.63;;
19883;SDS011;10104;50.732;10.174;2023-07-29T12:55:16;2.50;;;2.30;;
19883;SDS011;10104;50.732;10.174;2023-07-29T12:57:43;6.00;;;1.92;;
19883;SDS011;10104;50.732;10.174;2023-07-29T13:00:05;6.93;;;2.20;;
19883;SDS011;10104;50.732;10.174;2023-07-29T13:02:27;11.13;;;2.00;;
19883;SDS011;10104;50.732;10.174;2023-07-29T13:04:49;7.05;;;1.98;;
19883;SDS011;10104;50.732;10.174;2023-07-29T13:07:10;7.45;;;2.67;;
19883;SDS011;10104;50.732;10.174;2023-07-29T13:09:32;7.55;;;2.10;;
19883;SDS011;10104;50.732;10.174;2023-07-29T13:11:53;8.07;;;2.00;;
19883;SDS011;10104;50.732;10.174;2023-07-29T13:14:15;3.80;;;1.60;;
19883;SDS011;10104;50.732;10.174;2023-07-29T13:16:36;3.25;;;1.80;;
19883;SDS011;10104;50.732;10.174;2023-07-29T13:18:58;4.07;;;1.90;;
19883;SDS011;10104;50.732;10.174;2023-07-29T13:21:20;10.32;;;2.00;;
19883;SDS011;10104;50.732;10.174;2023-07-29T13:23:41;4.18;;;1.60;;
19883;SDS011;10104;50.732;10.174;2023-07-29T13:26:03;3.90;;;1.60;;
19883;SDS011;10104;50.732;10.174;2023-07-29T13:28:24;3.35;;;1.60;;
19883;SDS011;10104;50.732;10.174;2023-07-29T13:30:46;4.18;;;1.73;;
19883;SDS011;10104;50.732;10.174;2023-07-29T13:33:08;7.35;;;1.55;;
19883;SDS011;10104;50.732;10.174;2023-07-29T13:35:30;2.38;;;1.30;;
19883;SDS011;10104;50.732;10.174;2023-07-29T13:37:52;4.13;;;1.50;;
19883;SDS011;10104;50.732;10.174;2023-07-29T13:40:13;5.00;;;1.65;;
19883;SDS011;10104;50.732;10.174;2023-07-29T13:42:35;2.65;;;1.35;;
19883;SDS011;10104;50.732;10.174;2023-07-29T13:44:56;1.80;;;1.20;;
19883;SDS011;10104;50.732;10.174;2023-07-29T13:47:18;2.58;;;1.23;;
19883;SDS011;10104;50.732;10.174;2023-07-29T13:49:39;1.92;;;1.20;;
19883;SDS011;10104;50.732;10.174;2023-07-29T13:52:01;1.95;;;1.13;;
19883;SDS011;10104;50.732;10.174;2023-07-29T13:54:22;1.48;;;1.13;;
19883;SDS011;10104;50.732;10.174;2023-07-29T13:56:44;14.10;;;2.50;;
19883;SDS011;10104;50.732;10.174;2023-07-29T13:59:05;2.85;;;1.45;;
19883;SDS011;10104;50.732;10.174;2023-07-29T14:01:27;7.07;;;1.98;;
19883;SDS011;10104;50.732;10.174;2023-07-29T14:03:49;3.92;;;1.50;;
19883;SDS011;10104;50.732;10.174;2023-07-29T14:06:10;2.10;;;1.90;;
19883;SDS011;10104;50.732;10.174;2023-07-29T14:08:32;4.28;;;1.73;;
19883;SDS011;10104;50.732;10.174;2023-07-29T14:10:54;16.67;;;3.72;;
19883;SDS011;10104;50.732;10.174;2023-07-29T14:13:15;15.43;;;2.80;;
19883;SDS011;10104;50.732;10.174;2023-07-29T14:15:37;18.38;;;2.55;;
19883;SDS011;10104;50.732;10.174;2023-07-29T14:17:58;13.02;;;2.20;;
19883;SDS011;10104;50.732;10.174;2023-07-29T14:20:20;29.35;;;4.07;;
19883;SDS011;10104;50.732;10.174;2023-07-29T14:22:42;7.07;;;1.80;;
19883;SDS011;10104;50.732;10.174;2023-07-29T14:25:04;1.25;;;1.15;;
19883;SDS011;10104;50.732;10.174;2023-07-29T14:27:27;32.10;;;4.10;;